Hovedside
METAR-TAF:

METAR-TAF

Lufthavner :

Uleåborg, Finland

Uleåborg lufthavn

breddegrad: 64-56N, lengdegrad: 025-22E, høyde over havet: 12 m

Gjeldene værobservasjon

Denne rapporten ble laget for 33 minutter siden, klokken 13:20 UTC
Vind 8 kt fra Nord-nordvest
Temperatur -9°C
Luftfuktighet 85%
Trykk 1040 hPa
Sikt 10 km eller mer

METAR: EFOU 251320Z AUTO 33008KT 9999 OVC080/// M09/M11 Q1040

Tid: 15:53 (13:53 UTC)

Varsel

Denne rapporten ble laget for 2 timer og 24 minutter siden, klokken 11:29 UTC
Varsel gyldig fra 25. klokken 12 UTC til 26. klokken 12 UTC
Vind 8 kt fra Nord-nordvest
Sikt 10 km eller mer
Få skyer i en høyde av 3000 ft
Brutte skyer i en høyde av 5000 ft
Sannsynlighet 30%
fra 25. klokken 12 UTC til 25. klokken 15 UTC
Sikt: 5000 m
lette snøbyger

TAF: EFOU 251129Z 2512/2612 33008KT 9999 FEW030 BKN050 PROB30 2512/2515 5000 -SHSN

Værobservasjoner og værvarsel for over 4000 flyplasser (METAR- og TAF-rapporter).

Tilgjengelige stasjoner er representert av de røde og gule prikkene på kartet.

Hold musepekeren over prikken for å se navnet på stasjonen.

Klikk så for å se værobservasjoner og -varsler.

For å forandre kartet kan du klikke på den grønne knappen med svart kryss for å zoome inn, på den grønne knappen med strek for å zoome ut, eller på de grønne pilene for å se tilstøtende kart.


METAR-TAF: